sensor_id;sensor_type;location;lat;lon;timestamp;P1;durP1;ratioP1;P2;durP2;ratioP2
26488;SDS011;14169;43.684;10.484;2022-07-29T00:01:17;8.07;;;3.97;;
26488;SDS011;14169;43.684;10.484;2022-07-29T00:03:43;7.28;;;3.97;;
26488;SDS011;14169;43.684;10.484;2022-07-29T00:06:08;8.20;;;3.83;;
26488;SDS011;14169;43.684;10.484;2022-07-29T00:08:33;5.20;;;3.67;;
26488;SDS011;14169;43.684;10.484;2022-07-29T00:10:59;4.95;;;3.03;;
26488;SDS011;14169;43.684;10.484;2022-07-29T00:13:24;7.30;;;3.65;;
26488;SDS011;14169;43.684;10.484;2022-07-29T00:15:50;5.43;;;3.20;;
26488;SDS011;14169;43.684;10.484;2022-07-29T00:18:15;4.30;;;2.70;;
26488;SDS011;14169;43.684;10.484;2022-07-29T00:20:40;4.25;;;2.58;;
26488;SDS011;14169;43.684;10.484;2022-07-29T00:23:06;5.78;;;2.75;;
26488;SDS011;14169;43.684;10.484;2022-07-29T00:25:31;5.85;;;3.47;;
26488;SDS011;14169;43.684;10.484;2022-07-29T00:27:57;4.57;;;3.20;;
26488;SDS011;14169;43.684;10.484;2022-07-29T00:30:22;2.90;;;2.70;;
26488;SDS011;14169;43.684;10.484;2022-07-29T00:32:48;4.95;;;3.67;;
26488;SDS011;14169;43.684;10.484;2022-07-29T00:35:13;4.68;;;3.08;;
26488;SDS011;14169;43.684;10.484;2022-07-29T00:37:57;7.53;;;3.15;;
26488;SDS011;14169;43.684;10.484;2022-07-29T00:40:23;3.90;;;3.08;;
26488;SDS011;14169;43.684;10.484;2022-07-29T00:42:49;8.27;;;3.38;;
26488;SDS011;14169;43.684;10.484;2022-07-29T00:45:17;7.18;;;3.45;;
26488;SDS011;14169;43.684;10.484;2022-07-29T00:47:43;5.18;;;3.13;;
26488;SDS011;14169;43.684;10.484;2022-07-29T00:50:09;4.72;;;3.03;;
26488;SDS011;14169;43.684;10.484;2022-07-29T00:52:38;8.20;;;3.38;;
26488;SDS011;14169;43.684;10.484;2022-07-29T00:55:06;7.18;;;3.20;;
26488;SDS011;14169;43.684;10.484;2022-07-29T00:57:37;7.28;;;3.45;;
26488;SDS011;14169;43.684;10.484;2022-07-29T01:00:04;6.65;;;3.53;;
26488;SDS011;14169;43.684;10.484;2022-07-29T01:02:30;5.40;;;3.20;;
26488;SDS011;14169;43.684;10.484;2022-07-29T01:04:56;5.32;;;3.70;;
26488;SDS011;14169;43.684;10.484;2022-07-29T01:07:22;5.70;;;3.80;;
26488;SDS011;14169;43.684;10.484;2022-07-29T01:09:50;4.03;;;3.63;;
26488;SDS011;14169;43.684;10.484;2022-07-29T01:12:19;7.10;;;3.78;;
26488;SDS011;14169;43.684;10.484;2022-07-29T01:14:48;6.82;;;4.35;;
26488;SDS011;14169;43.684;10.484;2022-07-29T01:25:59;9.57;;;4.15;;
26488;SDS011;14169;43.684;10.484;2022-07-29T01:31:14;5.03;;;3.70;;
26488;SDS011;14169;43.684;10.484;2022-07-29T01:33:45;7.53;;;4.03;;
26488;SDS011;14169;43.684;10.484;2022-07-29T01:36:23;6.45;;;3.55;;
26488;SDS011;14169;43.684;10.484;2022-07-29T01:39:19;6.90;;;3.20;;
26488;SDS011;14169;43.684;10.484;2022-07-29T01:42:10;14.13;;;3.40;;
26488;SDS011;14169;43.684;10.484;2022-07-29T01:44:56;5.30;;;3.00;;
26488;SDS011;14169;43.684;10.484;2022-07-29T01:47:26;5.28;;;3.78;;
26488;SDS011;14169;43.684;10.484;2022-07-29T01:49:58;4.60;;;3.63;;
26488;SDS011;14169;43.684;10.484;2022-07-29T01:52:27;6.47;;;3.67;;
26488;SDS011;14169;43.684;10.484;2022-07-29T01:54:59;4.38;;;3.83;;
26488;SDS011;14169;43.684;10.484;2022-07-29T01:57:32;4.90;;;4.07;;
26488;SDS011;14169;43.684;10.484;2022-07-29T02:00:01;9.23;;;4.28;;
26488;SDS011;14169;43.684;10.484;2022-07-29T02:02:29;4.00;;;3.55;;
26488;SDS011;14169;43.684;10.484;2022-07-29T02:04:56;5.80;;;4.15;;
26488;SDS011;14169;43.684;10.484;2022-07-29T02:07:25;5.75;;;4.15;;
26488;SDS011;14169;43.684;10.484;2022-07-29T02:09:53;9.80;;;4.63;;
26488;SDS011;14169;43.684;10.484;2022-07-29T02:12:21;5.90;;;4.40;;
26488;SDS011;14169;43.684;10.484;2022-07-29T02:14:50;12.60;;;4.38;;
26488;SDS011;14169;43.684;10.484;2022-07-29T02:17:22;7.85;;;4.30;;
26488;SDS011;14169;43.684;10.484;2022-07-29T02:19:52;7.47;;;5.03;;
26488;SDS011;14169;43.684;10.484;2022-07-29T02:22:21;8.93;;;4.68;;
26488;SDS011;14169;43.684;10.484;2022-07-29T02:24:48;5.45;;;4.88;;
26488;SDS011;14169;43.684;10.484;2022-07-29T02:27:17;5.85;;;4.93;;
26488;SDS011;14169;43.684;10.484;2022-07-29T02:29:45;5.20;;;4.30;;
26488;SDS011;14169;43.684;10.484;2022-07-29T02:32:13;9.88;;;4.82;;
26488;SDS011;14169;43.684;10.484;2022-07-29T02:34:39;6.57;;;4.72;;
26488;SDS011;14169;43.684;10.484;2022-07-29T02:37:07;6.13;;;5.50;;
26488;SDS011;14169;43.684;10.484;2022-07-29T02:39:35;6.82;;;4.40;;
26488;SDS011;14169;43.684;10.484;2022-07-29T02:42:03;4.60;;;4.05;;
26488;SDS011;14169;43.684;10.484;2022-07-29T02:44:32;6.15;;;4.95;;
26488;SDS011;14169;43.684;10.484;2022-07-29T02:47:07;5.20;;;4.30;;
26488;SDS011;14169;43.684;10.484;2022-07-29T02:49:52;6.13;;;5.13;;
26488;SDS011;14169;43.684;10.484;2022-07-29T02:52:26;7.82;;;5.25;;
26488;SDS011;14169;43.684;10.484;2022-07-29T02:55:00;7.55;;;5.15;;
26488;SDS011;14169;43.684;10.484;2022-07-29T02:57:32;5.55;;;4.28;;
26488;SDS011;14169;43.684;10.484;2022-07-29T03:00:05;6.68;;;4.20;;
26488;SDS011;14169;43.684;10.484;2022-07-29T03:02:36;8.18;;;5.85;;
26488;SDS011;14169;43.684;10.484;2022-07-29T03:05:05;6.82;;;4.60;;
26488;SDS011;14169;43.684;10.484;2022-07-29T03:07:33;5.95;;;4.60;;
26488;SDS011;14169;43.684;10.484;2022-07-29T03:10:00;5.45;;;4.50;;
26488;SDS011;14169;43.684;10.484;2022-07-29T03:12:26;6.68;;;5.15;;
26488;SDS011;14169;43.684;10.484;2022-07-29T03:14:53;8.77;;;5.43;;
26488;SDS011;14169;43.684;10.484;2022-07-29T03:17:20;5.38;;;4.75;;
26488;SDS011;14169;43.684;10.484;2022-07-29T03:19:46;9.35;;;4.93;;
26488;SDS011;14169;43.684;10.484;2022-07-29T03:22:12;5.78;;;4.60;;
26488;SDS011;14169;43.684;10.484;2022-07-29T03:24:38;5.28;;;4.45;;
26488;SDS011;14169;43.684;10.484;2022-07-29T03:27:04;6.47;;;4.78;;
26488;SDS011;14169;43.684;10.484;2022-07-29T03:29:30;6.72;;;4.60;;
26488;SDS011;14169;43.684;10.484;2022-07-29T03:31:56;8.85;;;4.60;;
26488;SDS011;14169;43.684;10.484;2022-07-29T03:34:21;8.52;;;6.13;;
26488;SDS011;14169;43.684;10.484;2022-07-29T03:36:47;7.22;;;5.15;;
26488;SDS011;14169;43.684;10.484;2022-07-29T03:39:14;8.43;;;4.80;;
26488;SDS011;14169;43.684;10.484;2022-07-29T03:41:43;6.38;;;4.95;;
26488;SDS011;14169;43.684;10.484;2022-07-29T03:44:10;7.78;;;4.80;;
26488;SDS011;14169;43.684;10.484;2022-07-29T03:46:38;5.72;;;4.95;;
26488;SDS011;14169;43.684;10.484;2022-07-29T03:49:06;5.72;;;4.45;;
26488;SDS011;14169;43.684;10.484;2022-07-29T03:51:33;7.20;;;4.78;;
26488;SDS011;14169;43.684;10.484;2022-07-29T03:54:03;4.47;;;4.07;;
26488;SDS011;14169;43.684;10.484;2022-07-29T03:56:29;5.07;;;4.57;;
26488;SDS011;14169;43.684;10.484;2022-07-29T03:58:57;6.93;;;4.78;;
26488;SDS011;14169;43.684;10.484;2022-07-29T04:01:23;7.57;;;4.72;;
26488;SDS011;14169;43.684;10.484;2022-07-29T04:03:51;6.32;;;4.88;;
26488;SDS011;14169;43.684;10.484;2022-07-29T04:06:16;6.97;;;4.47;;
26488;SDS011;14169;43.684;10.484;2022-07-29T04:08:42;5.03;;;4.38;;
26488;SDS011;14169;43.684;10.484;2022-07-29T04:11:07;5.18;;;4.65;;
26488;SDS011;14169;43.684;10.484;2022-07-29T04:13:32;9.85;;;5.13;;
26488;SDS011;14169;43.684;10.484;2022-07-29T04:15:58;5.32;;;4.82;;
26488;SDS011;14169;43.684;10.484;2022-07-29T04:18:23;5.72;;;5.20;;
26488;SDS011;14169;43.684;10.484;2022-07-29T04:20:49;6.25;;;4.72;;
26488;SDS011;14169;43.684;10.484;2022-07-29T04:23:15;5.15;;;4.53;;
26488;SDS011;14169;43.684;10.484;2022-07-29T04:25:40;6.82;;;4.85;;
26488;SDS011;14169;43.684;10.484;2022-07-29T04:28:06;10.85;;;4.30;;
26488;SDS011;14169;43.684;10.484;2022-07-29T04:30:33;9.05;;;4.47;;
26488;SDS011;14169;43.684;10.484;2022-07-29T04:33:03;9.35;;;4.45;;
26488;SDS011;14169;43.684;10.484;2022-07-29T04:35:30;8.63;;;4.68;;
26488;SDS011;14169;43.684;10.484;2022-07-29T04:37:58;6.32;;;4.47;;
26488;SDS011;14169;43.684;10.484;2022-07-29T04:40:23;6.82;;;4.50;;
26488;SDS011;14169;43.684;10.484;2022-07-29T04:42:49;7.57;;;5.00;;
26488;SDS011;14169;43.684;10.484;2022-07-29T04:45:14;6.05;;;4.10;;
26488;SDS011;14169;43.684;10.484;2022-07-29T04:47:40;5.05;;;4.50;;
26488;SDS011;14169;43.684;10.484;2022-07-29T04:50:06;6.75;;;5.20;;
26488;SDS011;14169;43.684;10.484;2022-07-29T04:52:35;6.82;;;4.55;;
26488;SDS011;14169;43.684;10.484;2022-07-29T04:55:02;6.68;;;4.72;;
26488;SDS011;14169;43.684;10.484;2022-07-29T04:57:29;6.43;;;4.65;;
26488;SDS011;14169;43.684;10.484;2022-07-29T04:59:54;5.68;;;4.72;;
26488;SDS011;14169;43.684;10.484;2022-07-29T05:02:19;7.78;;;5.00;;
26488;SDS011;14169;43.684;10.484;2022-07-29T05:04:45;6.88;;;5.00;;
26488;SDS011;14169;43.684;10.484;2022-07-29T05:07:10;5.75;;;4.85;;
26488;SDS011;14169;43.684;10.484;2022-07-29T05:09:36;9.20;;;5.88;;
26488;SDS011;14169;43.684;10.484;2022-07-29T05:12:01;8.52;;;4.93;;
26488;SDS011;14169;43.684;10.484;2022-07-29T05:14:26;5.78;;;4.75;;
26488;SDS011;14169;43.684;10.484;2022-07-29T05:16:52;6.10;;;4.90;;
26488;SDS011;14169;43.684;10.484;2022-07-29T05:19:21;8.10;;;5.15;;
26488;SDS011;14169;43.684;10.484;2022-07-29T05:21:47;6.82;;;5.13;;
26488;SDS011;14169;43.684;10.484;2022-07-29T05:24:12;7.60;;;4.63;;
26488;SDS011;14169;43.684;10.484;2022-07-29T05:26:38;7.72;;;5.95;;
26488;SDS011;14169;43.684;10.484;2022-07-29T05:29:04;7.65;;;4.85;;
26488;SDS011;14169;43.684;10.484;2022-07-29T05:31:30;7.07;;;4.70;;
26488;SDS011;14169;43.684;10.484;2022-07-29T05:33:55;11.77;;;4.60;;
26488;SDS011;14169;43.684;10.484;2022-07-29T05:36:21;6.95;;;4.05;;
26488;SDS011;14169;43.684;10.484;2022-07-29T05:38:46;6.80;;;4.85;;
26488;SDS011;14169;43.684;10.484;2022-07-29T05:41:11;5.32;;;4.82;;
26488;SDS011;14169;43.684;10.484;2022-07-29T05:43:37;8.30;;;6.05;;
26488;SDS011;14169;43.684;10.484;2022-07-29T05:46:02;5.63;;;4.10;;
26488;SDS011;14169;43.684;10.484;2022-07-29T05:48:28;4.63;;;4.22;;
26488;SDS011;14169;43.684;10.484;2022-07-29T05:50:53;5.75;;;5.10;;
26488;SDS011;14169;43.684;10.484;2022-07-29T05:53:19;5.20;;;4.60;;
26488;SDS011;14169;43.684;10.484;2022-07-29T05:55:45;6.78;;;4.82;;
26488;SDS011;14169;43.684;10.484;2022-07-29T05:58:10;9.13;;;5.03;;
26488;SDS011;14169;43.684;10.484;2022-07-29T06:00:35;7.60;;;5.72;;
26488;SDS011;14169;43.684;10.484;2022-07-29T06:03:01;8.15;;;6.63;;
26488;SDS011;14169;43.684;10.484;2022-07-29T06:05:26;12.27;;;6.72;;
26488;SDS011;14169;43.684;10.484;2022-07-29T06:07:52;8.52;;;6.72;;
26488;SDS011;14169;43.684;10.484;2022-07-29T06:10:18;7.03;;;5.47;;
26488;SDS011;14169;43.684;10.484;2022-07-29T06:12:44;5.72;;;4.53;;
26488;SDS011;14169;43.684;10.484;2022-07-29T06:15:09;7.07;;;4.75;;
26488;SDS011;14169;43.684;10.484;2022-07-29T06:17:35;6.15;;;4.32;;
26488;SDS011;14169;43.684;10.484;2022-07-29T06:20:01;5.18;;;4.70;;
26488;SDS011;14169;43.684;10.484;2022-07-29T06:22:27;6.00;;;4.10;;
26488;SDS011;14169;43.684;10.484;2022-07-29T06:24:53;5.00;;;4.40;;
26488;SDS011;14169;43.684;10.484;2022-07-29T06:27:18;4.68;;;4.13;;
26488;SDS011;14169;43.684;10.484;2022-07-29T06:29:43;5.90;;;4.20;;
26488;SDS011;14169;43.684;10.484;2022-07-29T06:32:09;7.30;;;4.35;;
26488;SDS011;14169;43.684;10.484;2022-07-29T06:34:35;5.47;;;3.92;;
26488;SDS011;14169;43.684;10.484;2022-07-29T06:37:05;10.70;;;4.25;;
26488;SDS011;14169;43.684;10.484;2022-07-29T06:39:33;7.45;;;4.10;;
26488;SDS011;14169;43.684;10.484;2022-07-29T06:42:02;22.05;;;5.05;;
26488;SDS011;14169;43.684;10.484;2022-07-29T06:44:28;5.05;;;4.30;;
26488;SDS011;14169;43.684;10.484;2022-07-29T06:46:54;15.45;;;4.82;;
26488;SDS011;14169;43.684;10.484;2022-07-29T06:49:20;6.18;;;4.57;;
26488;SDS011;14169;43.684;10.484;2022-07-29T06:51:46;11.40;;;4.45;;
26488;SDS011;14169;43.684;10.484;2022-07-29T06:54:11;5.38;;;4.13;;
26488;SDS011;14169;43.684;10.484;2022-07-29T06:56:37;5.88;;;4.32;;
26488;SDS011;14169;43.684;10.484;2022-07-29T06:59:03;8.70;;;4.30;;
26488;SDS011;14169;43.684;10.484;2022-07-29T07:01:28;26.88;;;5.40;;
26488;SDS011;14169;43.684;10.484;2022-07-29T07:03:54;7.93;;;4.47;;
26488;SDS011;14169;43.684;10.484;2022-07-29T07:06:19;7.53;;;3.90;;
26488;SDS011;14169;43.684;10.484;2022-07-29T07:08:45;8.55;;;4.22;;
26488;SDS011;14169;43.684;10.484;2022-07-29T07:11:10;9.63;;;4.57;;
26488;SDS011;14169;43.684;10.484;2022-07-29T07:13:36;20.98;;;4.85;;
26488;SDS011;14169;43.684;10.484;2022-07-29T07:16:01;9.55;;;4.55;;
26488;SDS011;14169;43.684;10.484;2022-07-29T07:18:27;13.02;;;4.38;;
26488;SDS011;14169;43.684;10.484;2022-07-29T07:20:53;8.50;;;4.25;;
26488;SDS011;14169;43.684;10.484;2022-07-29T07:23:18;6.05;;;3.35;;
26488;SDS011;14169;43.684;10.484;2022-07-29T07:25:44;4.28;;;3.00;;
26488;SDS011;14169;43.684;10.484;2022-07-29T07:28:10;6.53;;;3.95;;
26488;SDS011;14169;43.684;10.484;2022-07-29T07:30:35;5.78;;;3.13;;
26488;SDS011;14169;43.684;10.484;2022-07-29T07:33:01;6.20;;;3.97;;
26488;SDS011;14169;43.684;10.484;2022-07-29T07:35:26;6.75;;;3.03;;
26488;SDS011;14169;43.684;10.484;2022-07-29T07:37:53;3.58;;;2.90;;
26488;SDS011;14169;43.684;10.484;2022-07-29T07:40:18;9.80;;;3.25;;
26488;SDS011;14169;43.684;10.484;2022-07-29T07:42:44;5.38;;;2.88;;
26488;SDS011;14169;43.684;10.484;2022-07-29T07:45:10;6.85;;;3.30;;
26488;SDS011;14169;43.684;10.484;2022-07-29T07:47:36;7.07;;;3.13;;
26488;SDS011;14169;43.684;10.484;2022-07-29T07:50:06;8.27;;;2.97;;
26488;SDS011;14169;43.684;10.484;2022-07-29T07:52:33;5.22;;;3.15;;
26488;SDS011;14169;43.684;10.484;2022-07-29T07:54:58;5.15;;;2.92;;
26488;SDS011;14169;43.684;10.484;2022-07-29T07:57:24;4.15;;;2.67;;
26488;SDS011;14169;43.684;10.484;2022-07-29T07:59:50;4.72;;;3.38;;
26488;SDS011;14169;43.684;10.484;2022-07-29T08:02:15;6.72;;;3.60;;
26488;SDS011;14169;43.684;10.484;2022-07-29T08:04:40;5.53;;;2.90;;
26488;SDS011;14169;43.684;10.484;2022-07-29T08:07:06;9.45;;;3.00;;
26488;SDS011;14169;43.684;10.484;2022-07-29T08:09:33;5.32;;;2.75;;
26488;SDS011;14169;43.684;10.484;2022-07-29T08:11:59;8.40;;;3.47;;
26488;SDS011;14169;43.684;10.484;2022-07-29T08:14:27;4.55;;;2.80;;
26488;SDS011;14169;43.684;10.484;2022-07-29T08:16:52;5.68;;;2.47;;
26488;SDS011;14169;43.684;10.484;2022-07-29T08:19:18;5.72;;;2.65;;
26488;SDS011;14169;43.684;10.484;2022-07-29T08:21:44;10.02;;;2.50;;
26488;SDS011;14169;43.684;10.484;2022-07-29T08:24:09;6.47;;;1.85;;
26488;SDS011;14169;43.684;10.484;2022-07-29T08:26:53;5.10;;;2.28;;
26488;SDS011;14169;43.684;10.484;2022-07-29T08:29:18;4.85;;;1.63;;
26488;SDS011;14169;43.684;10.484;2022-07-29T08:31:44;4.95;;;2.22;;
26488;SDS011;14169;43.684;10.484;2022-07-29T08:34:10;7.80;;;1.67;;
26488;SDS011;14169;43.684;10.484;2022-07-29T08:36:36;5.43;;;2.20;;
26488;SDS011;14169;43.684;10.484;2022-07-29T08:39:03;2.63;;;1.52;;
26488;SDS011;14169;43.684;10.484;2022-07-29T08:41:28;6.90;;;2.30;;
26488;SDS011;14169;43.684;10.484;2022-07-29T08:43:54;3.67;;;2.15;;
26488;SDS011;14169;43.684;10.484;2022-07-29T08:46:20;8.10;;;1.95;;
26488;SDS011;14169;43.684;10.484;2022-07-29T08:48:46;4.00;;;2.15;;
26488;SDS011;14169;43.684;10.484;2022-07-29T08:51:13;4.05;;;1.92;;
26488;SDS011;14169;43.684;10.484;2022-07-29T08:53:43;4.85;;;1.70;;
26488;SDS011;14169;43.684;10.484;2022-07-29T08:56:13;5.82;;;2.45;;
26488;SDS011;14169;43.684;10.484;2022-07-29T08:58:39;4.97;;;2.13;;
26488;SDS011;14169;43.684;10.484;2022-07-29T09:01:06;4.05;;;1.65;;
26488;SDS011;14169;43.684;10.484;2022-07-29T09:03:32;4.07;;;2.05;;
26488;SDS011;14169;43.684;10.484;2022-07-29T09:06:01;7.95;;;2.25;;
26488;SDS011;14169;43.684;10.484;2022-07-29T09:08:27;3.58;;;1.85;;
26488;SDS011;14169;43.684;10.484;2022-07-29T09:10:53;4.45;;;2.00;;
26488;SDS011;14169;43.684;10.484;2022-07-29T09:13:21;2.50;;;1.58;;
26488;SDS011;14169;43.684;10.484;2022-07-29T09:15:47;2.25;;;1.50;;
26488;SDS011;14169;43.684;10.484;2022-07-29T09:18:36;4.00;;;1.73;;
26488;SDS011;14169;43.684;10.484;2022-07-29T09:21:02;4.43;;;2.20;;
26488;SDS011;14169;43.684;10.484;2022-07-29T09:24:06;9.57;;;1.77;;
26488;SDS011;14169;43.684;10.484;2022-07-29T09:26:43;4.97;;;2.20;;
26488;SDS011;14169;43.684;10.484;2022-07-29T09:29:11;4.70;;;1.77;;
26488;SDS011;14169;43.684;10.484;2022-07-29T09:31:39;4.10;;;1.58;;
26488;SDS011;14169;43.684;10.484;2022-07-29T09:34:07;5.00;;;1.60;;
26488;SDS011;14169;43.684;10.484;2022-07-29T09:36:38;5.20;;;1.65;;
26488;SDS011;14169;43.684;10.484;2022-07-29T09:39:11;2.47;;;1.50;;
26488;SDS011;14169;43.684;10.484;2022-07-29T09:41:44;5.00;;;1.60;;
26488;SDS011;14169;43.684;10.484;2022-07-29T09:44:11;3.40;;;1.67;;
26488;SDS011;14169;43.684;10.484;2022-07-29T09:46:36;9.32;;;1.60;;
26488;SDS011;14169;43.684;10.484;2022-07-29T09:49:05;3.42;;;1.92;;
26488;SDS011;14169;43.684;10.484;2022-07-29T09:51:34;4.13;;;1.67;;
26488;SDS011;14169;43.684;10.484;2022-07-29T09:54:00;2.53;;;1.80;;
26488;SDS011;14169;43.684;10.484;2022-07-29T09:56:41;2.03;;;1.83;;
26488;SDS011;14169;43.684;10.484;2022-07-29T09:59:07;9.15;;;2.45;;
26488;SDS011;14169;43.684;10.484;2022-07-29T10:01:34;3.63;;;2.08;;
26488;SDS011;14169;43.684;10.484;2022-07-29T10:04:01;3.47;;;2.10;;
26488;SDS011;14169;43.684;10.484;2022-07-29T10:06:26;3.40;;;1.08;;
26488;SDS011;14169;43.684;10.484;2022-07-29T10:08:52;13.60;;;2.53;;
26488;SDS011;14169;43.684;10.484;2022-07-29T10:11:18;2.50;;;1.20;;
26488;SDS011;14169;43.684;10.484;2022-07-29T10:13:44;2.65;;;1.17;;
26488;SDS011;14169;43.684;10.484;2022-07-29T10:16:13;2.15;;;1.20;;
26488;SDS011;14169;43.684;10.484;2022-07-29T10:18:40;3.08;;;1.50;;
26488;SDS011;14169;43.684;10.484;2022-07-29T10:21:06;7.05;;;1.20;;
26488;SDS011;14169;43.684;10.484;2022-07-29T10:23:32;2.97;;;0.90;;
26488;SDS011;14169;43.684;10.484;2022-07-29T10:25:58;1.75;;;1.00;;
26488;SDS011;14169;43.684;10.484;2022-07-29T10:28:25;1.58;;;0.82;;
26488;SDS011;14169;43.684;10.484;2022-07-29T10:30:51;2.53;;;1.10;;
26488;SDS011;14169;43.684;10.484;2022-07-29T10:38:52;2.47;;;1.05;;
26488;SDS011;14169;43.684;10.484;2022-07-29T10:44:16;3.03;;;1.88;;
26488;SDS011;14169;43.684;10.484;2022-07-29T10:46:43;4.80;;;1.30;;
26488;SDS011;14169;43.684;10.484;2022-07-29T10:49:11;5.43;;;1.55;;
26488;SDS011;14169;43.684;10.484;2022-07-29T11:07:30;2.47;;;1.10;;
26488;SDS011;14169;43.684;10.484;2022-07-29T11:23:17;4.43;;;1.30;;
26488;SDS011;14169;43.684;10.484;2022-07-29T11:25:43;2.55;;;1.35;;
26488;SDS011;14169;43.684;10.484;2022-07-29T11:28:13;2.65;;;1.38;;
26488;SDS011;14169;43.684;10.484;2022-07-29T11:30:50;3.55;;;1.27;;
26488;SDS011;14169;43.684;10.484;2022-07-29T11:33:33;3.40;;;1.50;;
26488;SDS011;14169;43.684;10.484;2022-07-29T11:36:09;2.38;;;1.10;;
26488;SDS011;14169;43.684;10.484;2022-07-29T11:38:36;2.90;;;1.30;;
26488;SDS011;14169;43.684;10.484;2022-07-29T11:43:57;3.50;;;1.40;;
26488;SDS011;14169;43.684;10.484;2022-07-29T11:49:21;3.33;;;1.23;;
26488;SDS011;14169;43.684;10.484;2022-07-29T11:51:52;1.95;;;1.20;;
26488;SDS011;14169;43.684;10.484;2022-07-29T11:54:37;2.00;;;1.38;;
26488;SDS011;14169;43.684;10.484;2022-07-29T11:57:07;8.07;;;1.98;;
26488;SDS011;14169;43.684;10.484;2022-07-29T11:59:37;4.82;;;1.60;;
26488;SDS011;14169;43.684;10.484;2022-07-29T12:02:04;3.22;;;1.38;;
26488;SDS011;14169;43.684;10.484;2022-07-29T12:04:29;4.00;;;1.10;;
26488;SDS011;14169;43.684;10.484;2022-07-29T12:06:55;1.80;;;1.00;;
26488;SDS011;14169;43.684;10.484;2022-07-29T12:09:21;6.10;;;1.25;;
26488;SDS011;14169;43.684;10.484;2022-07-29T12:11:57;2.33;;;0.98;;
26488;SDS011;14169;43.684;10.484;2022-07-29T12:14:27;4.72;;;1.25;;
26488;SDS011;14169;43.684;10.484;2022-07-29T12:16:53;3.35;;;1.23;;
26488;SDS011;14169;43.684;10.484;2022-07-29T12:19:19;4.28;;;1.13;;
26488;SDS011;14169;43.684;10.484;2022-07-29T12:21:47;2.42;;;1.02;;
26488;SDS011;14169;43.684;10.484;2022-07-29T12:24:16;3.20;;;1.55;;
26488;SDS011;14169;43.684;10.484;2022-07-29T12:26:49;3.47;;;1.33;;
26488;SDS011;14169;43.684;10.484;2022-07-29T12:29:16;2.03;;;1.08;;
26488;SDS011;14169;43.684;10.484;2022-07-29T12:31:42;2.30;;;1.25;;
26488;SDS011;14169;43.684;10.484;2022-07-29T12:34:09;2.47;;;1.30;;
26488;SDS011;14169;43.684;10.484;2022-07-29T12:36:41;2.10;;;1.05;;
26488;SDS011;14169;43.684;10.484;2022-07-29T12:39:08;3.28;;;1.50;;
26488;SDS011;14169;43.684;10.484;2022-07-29T12:41:34;3.45;;;1.27;;
26488;SDS011;14169;43.684;10.484;2022-07-29T12:44:00;4.82;;;1.35;;
26488;SDS011;14169;43.684;10.484;2022-07-29T12:46:26;2.40;;;1.20;;
26488;SDS011;14169;43.684;10.484;2022-07-29T12:48:52;3.97;;;1.25;;
26488;SDS011;14169;43.684;10.484;2022-07-29T12:51:28;2.40;;;1.25;;
26488;SDS011;14169;43.684;10.484;2022-07-29T12:54:02;5.20;;;1.20;;
26488;SDS011;14169;43.684;10.484;2022-07-29T12:56:28;2.50;;;1.20;;
26488;SDS011;14169;43.684;10.484;2022-07-29T12:58:53;2.90;;;1.02;;
26488;SDS011;14169;43.684;10.484;2022-07-29T13:01:21;2.15;;;0.98;;
26488;SDS011;14169;43.684;10.484;2022-07-29T13:09:11;5.57;;;1.10;;
26488;SDS011;14169;43.684;10.484;2022-07-29T13:11:42;2.78;;;1.10;;
26488;SDS011;14169;43.684;10.484;2022-07-29T13:16:36;2.65;;;1.20;;
26488;SDS011;14169;43.684;10.484;2022-07-29T13:19:31;3.00;;;1.25;;
26488;SDS011;14169;43.684;10.484;2022-07-29T13:21:58;2.55;;;1.30;;
26488;SDS011;14169;43.684;10.484;2022-07-29T13:24:23;3.35;;;1.20;;
26488;SDS011;14169;43.684;10.484;2022-07-29T13:26:49;3.17;;;1.20;;
26488;SDS011;14169;43.684;10.484;2022-07-29T13:29:14;3.30;;;1.10;;
26488;SDS011;14169;43.684;10.484;2022-07-29T13:31:39;4.90;;;1.30;;
26488;SDS011;14169;43.684;10.484;2022-07-29T13:34:05;3.05;;;1.17;;
26488;SDS011;14169;43.684;10.484;2022-07-29T13:36:30;1.88;;;1.00;;
26488;SDS011;14169;43.684;10.484;2022-07-29T13:38:56;5.70;;;1.30;;
26488;SDS011;14169;43.684;10.484;2022-07-29T13:41:21;1.80;;;1.08;;
26488;SDS011;14169;43.684;10.484;2022-07-29T13:43:47;2.40;;;0.90;;
26488;SDS011;14169;43.684;10.484;2022-07-29T13:46:12;2.95;;;1.45;;
26488;SDS011;14169;43.684;10.484;2022-07-29T13:48:37;2.42;;;1.00;;
26488;SDS011;14169;43.684;10.484;2022-07-29T13:51:03;2.97;;;1.20;;
26488;SDS011;14169;43.684;10.484;2022-07-29T13:53:28;3.33;;;1.52;;
26488;SDS011;14169;43.684;10.484;2022-07-29T13:55:54;3.67;;;1.00;;
26488;SDS011;14169;43.684;10.484;2022-07-29T13:58:20;3.05;;;0.98;;
26488;SDS011;14169;43.684;10.484;2022-07-29T14:00:45;2.95;;;1.17;;
26488;SDS011;14169;43.684;10.484;2022-07-29T14:03:11;2.50;;;1.00;;
26488;SDS011;14169;43.684;10.484;2022-07-29T14:05:37;2.47;;;1.35;;
26488;SDS011;14169;43.684;10.484;2022-07-29T14:08:02;5.35;;;1.20;;
26488;SDS011;14169;43.684;10.484;2022-07-29T14:10:27;2.42;;;1.00;;
26488;SDS011;14169;43.684;10.484;2022-07-29T14:12:53;4.82;;;1.08;;
26488;SDS011;14169;43.684;10.484;2022-07-29T14:15:18;3.17;;;1.45;;
26488;SDS011;14169;43.684;10.484;2022-07-29T14:17:45;1.88;;;1.10;;
26488;SDS011;14169;43.684;10.484;2022-07-29T14:20:10;3.72;;;1.05;;
26488;SDS011;14169;43.684;10.484;2022-07-29T14:22:35;3.88;;;1.25;;
26488;SDS011;14169;43.684;10.484;2022-07-29T14:25:01;1.95;;;0.90;;
26488;SDS011;14169;43.684;10.484;2022-07-29T14:27:26;3.10;;;1.33;;
26488;SDS011;14169;43.684;10.484;2022-07-29T14:29:52;2.85;;;1.55;;
26488;SDS011;14169;43.684;10.484;2022-07-29T14:32:18;3.58;;;1.38;;
26488;SDS011;14169;43.684;10.484;2022-07-29T14:34:43;2.10;;;0.82;;
26488;SDS011;14169;43.684;10.484;2022-07-29T14:37:08;2.42;;;1.00;;
26488;SDS011;14169;43.684;10.484;2022-07-29T14:39:34;2.63;;;1.20;;
26488;SDS011;14169;43.684;10.484;2022-07-29T14:42:01;2.28;;;1.50;;
26488;SDS011;14169;43.684;10.484;2022-07-29T14:44:26;2.40;;;1.08;;
26488;SDS011;14169;43.684;10.484;2022-07-29T14:46:56;2.25;;;1.08;;
26488;SDS011;14169;43.684;10.484;2022-07-29T14:49:25;2.92;;;1.30;;
26488;SDS011;14169;43.684;10.484;2022-07-29T14:51:51;3.55;;;1.42;;
26488;SDS011;14169;43.684;10.484;2022-07-29T14:54:16;2.72;;;1.17;;
26488;SDS011;14169;43.684;10.484;2022-07-29T14:56:42;1.98;;;1.20;;
26488;SDS011;14169;43.684;10.484;2022-07-29T14:59:08;2.25;;;1.17;;
26488;SDS011;14169;43.684;10.484;2022-07-29T15:01:33;4.57;;;1.30;;
26488;SDS011;14169;43.684;10.484;2022-07-29T15:03:59;6.30;;;1.10;;
26488;SDS011;14169;43.684;10.484;2022-07-29T15:06:24;3.55;;;1.30;;
26488;SDS011;14169;43.684;10.484;2022-07-29T15:08:50;1.85;;;0.93;;
26488;SDS011;14169;43.684;10.484;2022-07-29T15:11:16;10.00;;;1.02;;
26488;SDS011;14169;43.684;10.484;2022-07-29T15:13:41;2.38;;;1.20;;
26488;SDS011;14169;43.684;10.484;2022-07-29T15:16:06;4.50;;;0.85;;
26488;SDS011;14169;43.684;10.484;2022-07-29T15:18:32;2.95;;;1.33;;
26488;SDS011;14169;43.684;10.484;2022-07-29T15:20:57;2.85;;;1.17;;
26488;SDS011;14169;43.684;10.484;2022-07-29T15:23:25;3.97;;;1.00;;
26488;SDS011;14169;43.684;10.484;2022-07-29T15:25:50;2.65;;;1.17;;
26488;SDS011;14169;43.684;10.484;2022-07-29T15:28:16;2.97;;;1.13;;
26488;SDS011;14169;43.684;10.484;2022-07-29T15:30:41;3.83;;;1.30;;
26488;SDS011;14169;43.684;10.484;2022-07-29T15:33:07;1.40;;;1.20;;
26488;SDS011;14169;43.684;10.484;2022-07-29T15:35:34;4.13;;;1.50;;
26488;SDS011;14169;43.684;10.484;2022-07-29T15:38:00;3.78;;;1.30;;